Hauptseite
METAR-TAF:

METAR-TAF

Flughäfen :

Flughafen Graz

Graz, Österreich

Breite: 47-00N, Länge: 015-26E, Höhe: 340 m

Beobachtung

Neuester Wetterbericht von vor 34 Minuten, um 20:50 UTC
Wind 1 kt aus unterschiedlichen Richtungen
Temperatur 10°C
Luftfeuchtigkeit 40%
Luftdruck 1018 hPa
Sichtweite 10 km oder mehr

METAR: LOWG 032050Z AUTO VRB01KT 9999 NSC 10/M03 Q1018

Zeit: 23:24 (21:24 UTC)

Prognose

Neuester Wetterbericht von vor 4 Stunden und 9 Minuten, um 17:15 UTC
Gültige Prognose vom 03 um 18 UTC bis 04 um 18 UTC
Wind 5 kt aus unterschiedlichen Richtungen
Sichtweite 10 km oder mehr
Durchbrochene Bewölkung in der Höhe von 6000 ft

TAF: LOWG 031715Z 0318/0418 VRB05KT 9999 BKN060 TX14/0413Z TN03/0405Z

Wetterbeobachtungen und Prognosen von mehr als 4000 Flughäfen (METAR und TAF Bericht).

Die verfügbaren Stationen werden durch gelbe und rote Markierungen auf der Karte dargestellt.

Führen Sie die Maus auf sie, um den Namen der Station zu sehen.

Darauf klicken, um die Beobachtung von Wetterbeobachtungen und Prognosen zu sehen.

Um die Karte zu ändern : klicken Sie auf den grünen Tasten mit einem schwarzen Kreuz Zum Vergrößern, auf den grünen Button mit einem Gedankenstrich zu verkleinern, oder auf die grünen Pfeile für benachbarte Karten.


METAR-TAF: